sensor_id;sensor_type;location;lat;lon;timestamp;pressure;altitude;pressure_sealevel;temperature;humidity
12664;BME280;6396;58.490;15.528;2023-03-21T00:01:21;100250.38;;;2.55;100.00
12664;BME280;6396;58.490;15.528;2023-03-21T00:03:49;99801.75;;;-0.50;100.00
12664;BME280;6396;58.490;15.528;2023-03-21T00:06:17;99869.38;;;-0.11;100.00
12664;BME280;6396;58.490;15.528;2023-03-21T00:08:45;99813.88;;;-0.44;100.00
12664;BME280;6396;58.490;15.528;2023-03-21T00:11:24;100458.06;;;3.65;100.00
12664;BME280;6396;58.490;15.528;2023-03-21T00:14:06;100430.25;;;3.41;100.00
12664;BME280;6396;58.490;15.528;2023-03-21T00:21:26;99641.16;;;-1.97;100.00
12664;BME280;6396;58.490;15.528;2023-03-21T00:30:07;99720.44;;;-0.77;100.00
12664;BME280;6396;58.490;15.528;2023-03-21T00:32:34;100373.75;;;3.04;100.00
12664;BME280;6396;58.490;15.528;2023-03-21T00:35:02;99765.25;;;-0.87;100.00
12664;BME280;6396;58.490;15.528;2023-03-21T00:37:29;100527.66;;;3.96;100.00
12664;BME280;6396;58.490;15.528;2023-03-21T00:39:57;100565.94;;;4.13;100.00
12664;BME280;6396;58.490;15.528;2023-03-21T00:42:32;100071.47;;;1.19;100.00
12664;BME280;6396;58.490;15.528;2023-03-21T00:44:59;99753.34;;;-0.58;100.00
12664;BME280;6396;58.490;15.528;2023-03-21T00:47:27;100265.97;;;2.42;100.00
12664;BME280;6396;58.490;15.528;2023-03-21T00:49:54;100452.84;;;3.30;100.00
12664;BME280;6396;58.490;15.528;2023-03-21T00:52:21;100432.84;;;3.08;100.00
12664;BME280;6396;58.490;15.528;2023-03-21T00:54:49;99732.50;;;-0.81;100.00
12664;BME280;6396;58.490;15.528;2023-03-21T00:57:16;99811.13;;;-0.74;100.00
12664;BME280;6396;58.490;15.528;2023-03-21T00:59:43;99677.13;;;-1.08;100.00
12664;BME280;6396;58.490;15.528;2023-03-21T01:02:10;100218.94;;;1.65;100.00
12664;BME280;6396;58.490;15.528;2023-03-21T01:04:40;100599.94;;;3.98;100.00
12664;BME280;6396;58.490;15.528;2023-03-21T01:07:07;100084.44;;;1.09;100.00
12664;BME280;6396;58.490;15.528;2023-03-21T01:09:34;100183.38;;;1.50;100.00
12664;BME280;6396;58.490;15.528;2023-03-21T01:12:02;99537.66;;;-2.10;100.00
12664;BME280;6396;58.490;15.528;2023-03-21T01:14:30;100614.69;;;3.68;100.00
12664;BME280;6396;58.490;15.528;2023-03-21T01:16:57;100233.78;;;1.85;100.00
12664;BME280;6396;58.490;15.528;2023-03-21T01:19:24;100030.56;;;0.62;100.00
12664;BME280;6396;58.490;15.528;2023-03-21T01:21:54;100183.16;;;1.00;100.00
12664;BME280;6396;58.490;15.528;2023-03-21T01:24:22;100555.53;;;3.52;100.00
12664;BME280;6396;58.490;15.528;2023-03-21T01:26:49;99981.91;;;0.20;100.00
12664;BME280;6396;58.490;15.528;2023-03-21T01:29:16;100604.25;;;3.68;100.00
12664;BME280;6396;58.490;15.528;2023-03-21T01:31:43;100169.47;;;1.41;100.00
12664;BME280;6396;58.490;15.528;2023-03-21T01:34:10;100430.22;;;2.90;100.00
12664;BME280;6396;58.490;15.528;2023-03-21T01:36:37;100449.31;;;2.87;100.00
12664;BME280;6396;58.490;15.528;2023-03-21T01:39:05;100559.00;;;3.67;100.00
12664;BME280;6396;58.490;15.528;2023-03-21T01:41:35;100556.41;;;3.67;100.00
12664;BME280;6396;58.490;15.528;2023-03-21T01:44:03;99907.34;;;-0.17;100.00
12664;BME280;6396;58.490;15.528;2023-03-21T01:46:35;100066.09;;;0.63;100.00
12664;BME280;6396;58.490;15.528;2023-03-21T01:49:08;100095.47;;;0.56;100.00
12664;BME280;6396;58.490;15.528;2023-03-21T01:51:39;100560.72;;;3.50;100.00
12664;BME280;6396;58.490;15.528;2023-03-21T01:54:11;100559.88;;;3.78;100.00
12664;BME280;6396;58.490;15.528;2023-03-21T01:56:41;100064.41;;;0.80;100.00
12664;BME280;6396;58.490;15.528;2023-03-21T01:59:15;100244.16;;;1.76;100.00
12664;BME280;6396;58.490;15.528;2023-03-21T02:01:46;100596.44;;;3.87;100.00
12664;BME280;6396;58.490;15.528;2023-03-21T02:04:15;100558.16;;;3.86;100.00
12664;BME280;6396;58.490;15.528;2023-03-21T02:06:49;100436.28;;;2.89;100.00
12664;BME280;6396;58.490;15.528;2023-03-21T02:09:22;100050.47;;;0.58;100.00
12664;BME280;6396;58.490;15.528;2023-03-21T02:11:53;99918.56;;;-0.24;100.00
12664;BME280;6396;58.490;15.528;2023-03-21T02:14:20;100631.22;;;3.71;100.00
12664;BME280;6396;58.490;15.528;2023-03-21T02:16:53;100280.66;;;2.03;100.00
12664;BME280;6396;58.490;15.528;2023-03-21T02:19:46;100414.53;;;2.69;100.00
12664;BME280;6396;58.490;15.528;2023-03-21T02:25:43;100032.31;;;0.63;100.00
12664;BME280;6396;58.490;15.528;2023-03-21T02:28:19;100657.34;;;3.83;100.00
12664;BME280;6396;58.490;15.528;2023-03-21T02:31:11;100294.56;;;2.07;100.00
12664;BME280;6396;58.490;15.528;2023-03-21T02:34:08;99950.66;;;-0.07;100.00
12664;BME280;6396;58.490;15.528;2023-03-21T02:36:54;100290.97;;;1.66;100.00
12664;BME280;6396;58.490;15.528;2023-03-21T02:39:26;100680.84;;;3.77;100.00
12664;BME280;6396;58.490;15.528;2023-03-21T02:42:05;100214.59;;;1.49;100.00
12664;BME280;6396;58.490;15.528;2023-03-21T02:44:40;100005.16;;;0.03;100.00
12664;BME280;6396;58.490;15.528;2023-03-21T02:47:13;99882.03;;;-0.65;100.00
12664;BME280;6396;58.490;15.528;2023-03-21T02:49:57;99707.59;;;-1.93;100.00
12664;BME280;6396;58.490;15.528;2023-03-21T03:02:27;100088.69;;;0.85;100.00
12664;BME280;6396;58.490;15.528;2023-03-21T03:04:55;100689.56;;;3.84;100.00
12664;BME280;6396;58.490;15.528;2023-03-21T03:07:33;99856.94;;;-0.67;100.00
12664;BME280;6396;58.490;15.528;2023-03-21T03:10:14;99885.94;;;-1.17;100.00
12664;BME280;6396;58.490;15.528;2023-03-21T03:12:56;100368.34;;;2.10;100.00
12664;BME280;6396;58.490;15.528;2023-03-21T03:15:36;99814.47;;;-0.87;100.00
12664;BME280;6396;58.490;15.528;2023-03-21T03:18:40;100666.00;;;3.60;100.00
12664;BME280;6396;58.490;15.528;2023-03-21T03:21:23;99841.69;;;-1.42;100.00
12664;BME280;6396;58.490;15.528;2023-03-21T03:23:57;100271.00;;;1.66;100.00
12664;BME280;6396;58.490;15.528;2023-03-21T03:26:29;99884.47;;;-0.86;100.00
12664;BME280;6396;58.490;15.528;2023-03-21T03:40:03;100427.41;;;2.26;100.00
12664;BME280;6396;58.490;15.528;2023-03-21T03:42:35;99849.47;;;-1.41;100.00
12664;BME280;6396;58.490;15.528;2023-03-21T03:45:04;100390.09;;;2.27;100.00
12664;BME280;6396;58.490;15.528;2023-03-21T03:47:35;99814.72;;;-1.68;100.00
12664;BME280;6396;58.490;15.528;2023-03-21T03:50:10;100168.44;;;1.01;100.00
12664;BME280;6396;58.490;15.528;2023-03-21T03:52:41;99689.41;;;-2.00;100.00
12664;BME280;6396;58.490;15.528;2023-03-21T03:55:16;100072.81;;;0.31;100.00
12664;BME280;6396;58.490;15.528;2023-03-21T03:57:44;100664.25;;;3.56;100.00
12664;BME280;6396;58.490;15.528;2023-03-21T04:00:13;99857.13;;;-1.54;100.00
12664;BME280;6396;58.490;15.528;2023-03-21T04:02:41;100230.63;;;0.71;100.00
12664;BME280;6396;58.490;15.528;2023-03-21T04:05:13;99827.56;;;-1.77;100.00
12664;BME280;6396;58.490;15.528;2023-03-21T04:10:38;99973.41;;;-0.84;100.00
12664;BME280;6396;58.490;15.528;2023-03-21T04:13:12;99793.72;;;-1.97;100.00
12664;BME280;6396;58.490;15.528;2023-03-21T04:15:53;100685.97;;;3.50;100.00
12664;BME280;6396;58.490;15.528;2023-03-21T04:18:21;100695.56;;;3.48;100.00
12664;BME280;6396;58.490;15.528;2023-03-21T04:20:49;100632.91;;;3.39;100.00
12664;BME280;6396;58.490;15.528;2023-03-21T04:23:17;100058.84;;;0.11;100.00
12664;BME280;6396;58.490;15.528;2023-03-21T04:25:46;100488.84;;;1.87;100.00
12664;BME280;6396;58.490;15.528;2023-03-21T04:28:13;100229.56;;;0.45;100.00
12664;BME280;6396;58.490;15.528;2023-03-21T04:30:40;100239.56;;;1.21;100.00
12664;BME280;6396;58.490;15.528;2023-03-21T04:33:07;100196.78;;;0.63;100.00
12664;BME280;6396;58.490;15.528;2023-03-21T04:35:35;100429.19;;;2.34;100.00
12664;BME280;6396;58.490;15.528;2023-03-21T04:38:03;99848.44;;;-1.59;100.00
12664;BME280;6396;58.490;15.528;2023-03-21T04:40:33;99886.19;;;-1.76;100.00
12664;BME280;6396;58.490;15.528;2023-03-21T04:56:53;100672.75;;;3.00;100.00
12664;BME280;6396;58.490;15.528;2023-03-21T04:59:21;100758.81;;;3.06;100.00
12664;BME280;6396;58.490;15.528;2023-03-21T05:01:48;100568.28;;;2.67;100.00
12664;BME280;6396;58.490;15.528;2023-03-21T05:04:17;100235.00;;;0.78;100.00
12664;BME280;6396;58.490;15.528;2023-03-21T05:06:45;100339.91;;;0.96;100.00
12664;BME280;6396;58.490;15.528;2023-03-21T05:09:16;99848.94;;;-1.93;100.00
12664;BME280;6396;58.490;15.528;2023-03-21T05:11:47;100089.03;;;-0.04;100.00
12664;BME280;6396;58.490;15.528;2023-03-21T05:14:25;100055.19;;;-0.19;100.00
12664;BME280;6396;58.490;15.528;2023-03-21T05:17:04;99766.50;;;-2.43;100.00
12664;BME280;6396;58.490;15.528;2023-03-21T05:19:43;100311.59;;;1.31;100.00
12664;BME280;6396;58.490;15.528;2023-03-21T05:22:27;99898.31;;;-1.74;100.00
12664;BME280;6396;58.490;15.528;2023-03-21T05:25:11;99825.09;;;-2.42;100.00
12664;BME280;6396;58.490;15.528;2023-03-21T05:27:48;100716.31;;;3.21;100.00
12664;BME280;6396;58.490;15.528;2023-03-21T05:30:34;99751.09;;;-3.02;100.00
12664;BME280;6396;58.490;15.528;2023-03-21T05:36:40;100356.75;;;1.48;100.00
12664;BME280;6396;58.490;15.528;2023-03-21T05:39:11;100688.50;;;3.26;100.00
12664;BME280;6396;58.490;15.528;2023-03-21T05:41:40;100674.56;;;3.25;100.00
12664;BME280;6396;58.490;15.528;2023-03-21T05:44:07;100159.34;;;0.30;100.00
12664;BME280;6396;58.490;15.528;2023-03-21T05:46:36;100690.22;;;3.21;100.00
12664;BME280;6396;58.490;15.528;2023-03-21T05:49:09;99750.06;;;-2.51;100.00
12664;BME280;6396;58.490;15.528;2023-03-21T05:51:44;99862.00;;;-1.78;100.00
12664;BME280;6396;58.490;15.528;2023-03-21T05:54:30;100139.75;;;-0.36;100.00
12664;BME280;6396;58.490;15.528;2023-03-21T05:57:03;100170.59;;;0.32;100.00
12664;BME280;6396;58.490;15.528;2023-03-21T05:59:33;100293.63;;;0.47;100.00
12664;BME280;6396;58.490;15.528;2023-03-21T06:02:01;99875.91;;;-1.73;100.00
12664;BME280;6396;58.490;15.528;2023-03-21T06:04:28;100697.22;;;3.29;100.00
12664;BME280;6396;58.490;15.528;2023-03-21T06:06:57;100129.84;;;0.19;100.00
12664;BME280;6396;58.490;15.528;2023-03-21T06:09:24;100648.47;;;3.16;100.00
12664;BME280;6396;58.490;15.528;2023-03-21T06:11:52;100657.19;;;3.26;100.00
12664;BME280;6396;58.490;15.528;2023-03-21T06:14:21;100550.78;;;2.36;100.00
12664;BME280;6396;58.490;15.528;2023-03-21T06:16:52;100671.06;;;3.13;100.00
12664;BME280;6396;58.490;15.528;2023-03-21T06:19:21;100157.41;;;0.02;100.00
12664;BME280;6396;58.490;15.528;2023-03-21T06:22:21;100668.47;;;3.17;100.00
12664;BME280;6396;58.490;15.528;2023-03-21T06:24:42;100623.03;;;2.67;100.00
12664;BME280;6396;58.490;15.528;2023-03-21T06:27:08;100669.34;;;3.16;100.00
12664;BME280;6396;58.490;15.528;2023-03-21T06:29:35;100511.59;;;2.24;100.00
12664;BME280;6396;58.490;15.528;2023-03-21T06:32:03;100532.50;;;2.35;100.00
12664;BME280;6396;58.490;15.528;2023-03-21T06:34:33;100525.56;;;2.34;100.00
12664;BME280;6396;58.490;15.528;2023-03-21T06:37:00;100505.53;;;2.23;100.00
12664;BME280;6396;58.490;15.528;2023-03-21T06:39:28;100449.81;;;1.93;100.00
12664;BME280;6396;58.490;15.528;2023-03-21T06:41:55;100461.09;;;1.95;100.00
12664;BME280;6396;58.490;15.528;2023-03-21T06:44:30;99917.19;;;-1.81;100.00
12664;BME280;6396;58.490;15.528;2023-03-21T06:47:01;100349.66;;;1.22;100.00
12664;BME280;6396;58.490;15.528;2023-03-21T06:49:34;100369.63;;;1.27;100.00
12664;BME280;6396;58.490;15.528;2023-03-21T06:52:01;100675.34;;;2.99;100.00
12664;BME280;6396;58.490;15.528;2023-03-21T06:54:28;100075.41;;;-0.74;100.00
12664;BME280;6396;58.490;15.528;2023-03-21T06:56:55;100217.97;;;0.05;100.00
12664;BME280;6396;58.490;15.528;2023-03-21T06:59:22;100478.34;;;1.78;100.00
12664;BME280;6396;58.490;15.528;2023-03-21T07:01:49;100196.53;;;0.27;100.00
12664;BME280;6396;58.490;15.528;2023-03-21T07:04:16;100778.03;;;3.17;100.00
12664;BME280;6396;58.490;15.528;2023-03-21T07:06:44;100556.03;;;2.48;100.00
12664;BME280;6396;58.490;15.528;2023-03-21T07:09:11;100589.97;;;2.57;100.00
12664;BME280;6396;58.490;15.528;2023-03-21T07:11:37;100620.47;;;2.78;100.00
12664;BME280;6396;58.490;15.528;2023-03-21T07:14:04;100741.66;;;3.48;100.00
12664;BME280;6396;58.490;15.528;2023-03-21T07:16:31;100705.94;;;3.36;100.00
12664;BME280;6396;58.490;15.528;2023-03-21T07:18:58;100588.97;;;2.36;100.00
12664;BME280;6396;58.490;15.528;2023-03-21T07:21:25;100624.88;;;2.91;100.00
12664;BME280;6396;58.490;15.528;2023-03-21T07:23:53;100605.63;;;2.62;100.00
12664;BME280;6396;58.490;15.528;2023-03-21T07:26:20;100671.03;;;3.07;100.00
12664;BME280;6396;58.490;15.528;2023-03-21T07:28:50;100368.00;;;1.46;100.00
12664;BME280;6396;58.490;15.528;2023-03-21T07:31:16;100743.34;;;3.38;100.00
12664;BME280;6396;58.490;15.528;2023-03-21T07:33:44;100709.41;;;3.33;100.00
12664;BME280;6396;58.490;15.528;2023-03-21T07:36:12;100302.63;;;0.90;100.00
12664;BME280;6396;58.490;15.528;2023-03-21T07:38:55;100217.41;;;0.42;100.00
12664;BME280;6396;58.490;15.528;2023-03-21T07:41:24;100215.69;;;0.43;100.00
12664;BME280;6396;58.490;15.528;2023-03-21T07:43:51;100448.91;;;1.85;100.00
12664;BME280;6396;58.490;15.528;2023-03-21T07:46:17;100461.19;;;2.07;100.00
12664;BME280;6396;58.490;15.528;2023-03-21T07:48:45;100171.56;;;0.44;100.00
12664;BME280;6396;58.490;15.528;2023-03-21T07:51:12;100229.75;;;0.72;100.00
12664;BME280;6396;58.490;15.528;2023-03-21T07:53:39;100704.31;;;3.71;100.00
12664;BME280;6396;58.490;15.528;2023-03-21T07:56:09;100569.31;;;3.01;100.00
12664;BME280;6396;58.490;15.528;2023-03-21T07:58:36;100751.38;;;3.91;100.00
12664;BME280;6396;58.490;15.528;2023-03-21T08:01:03;100450.94;;;2.45;100.00
12664;BME280;6396;58.490;15.528;2023-03-21T08:03:30;100791.41;;;3.85;100.00
12664;BME280;6396;58.490;15.528;2023-03-21T08:05:58;100735.66;;;3.70;100.00
12664;BME280;6396;58.490;15.528;2023-03-21T08:08:25;100797.53;;;3.93;100.00
12664;BME280;6396;58.490;15.528;2023-03-21T08:10:52;100333.38;;;1.56;100.00
12664;BME280;6396;58.490;15.528;2023-03-21T08:13:20;100167.50;;;0.88;100.00
12664;BME280;6396;58.490;15.528;2023-03-21T08:15:47;100005.63;;;-0.56;100.00
12664;BME280;6396;58.490;15.528;2023-03-21T08:18:15;100497.06;;;2.64;100.00
12664;BME280;6396;58.490;15.528;2023-03-21T08:20:43;100027.25;;;-0.54;100.00
12664;BME280;6396;58.490;15.528;2023-03-21T08:23:10;100457.88;;;2.49;100.00
12664;BME280;6396;58.490;15.528;2023-03-21T08:25:38;100204.06;;;1.26;100.00
12664;BME280;6396;58.490;15.528;2023-03-21T08:28:05;100308.06;;;1.25;100.00
12664;BME280;6396;58.490;15.528;2023-03-21T08:30:34;100097.81;;;0.14;100.00
12664;BME280;6396;58.490;15.528;2023-03-21T08:33:01;99954.78;;;-0.38;100.00
12664;BME280;6396;58.490;15.528;2023-03-21T08:35:29;99977.31;;;-0.28;100.00
12664;BME280;6396;58.490;15.528;2023-03-21T08:37:57;100420.63;;;2.74;100.00
12664;BME280;6396;58.490;15.528;2023-03-21T08:40:24;100354.53;;;2.36;100.00
12664;BME280;6396;58.490;15.528;2023-03-21T08:42:51;100509.38;;;3.28;100.00
12664;BME280;6396;58.490;15.528;2023-03-21T08:45:19;100466.75;;;2.99;100.00
12664;BME280;6396;58.490;15.528;2023-03-21T08:47:49;100271.00;;;1.66;100.00
12664;BME280;6396;58.490;15.528;2023-03-21T08:50:18;100650.41;;;4.30;100.00
12664;BME280;6396;58.490;15.528;2023-03-21T08:52:45;100192.97;;;1.75;100.00
12664;BME280;6396;58.490;15.528;2023-03-21T08:55:13;100458.88;;;2.78;100.00
12664;BME280;6396;58.490;15.528;2023-03-21T08:57:41;100486.78;;;3.54;100.00
12664;BME280;6396;58.490;15.528;2023-03-21T09:00:10;100257.25;;;2.09;100.00
12664;BME280;6396;58.490;15.528;2023-03-21T09:02:38;99978.59;;;0.53;100.00
12664;BME280;6396;58.490;15.528;2023-03-21T09:05:08;100011.41;;;0.36;100.00
12664;BME280;6396;58.490;15.528;2023-03-21T09:07:36;100412.81;;;2.69;100.00
12664;BME280;6396;58.490;15.528;2023-03-21T09:10:05;100395.41;;;2.52;100.00
12664;BME280;6396;58.490;15.528;2023-03-21T09:12:32;100180.84;;;1.88;100.00
12664;BME280;6396;58.490;15.528;2023-03-21T09:15:00;100250.31;;;2.29;100.00
12664;BME280;6396;58.490;15.528;2023-03-21T09:17:29;100716.59;;;4.87;100.00
12664;BME280;6396;58.490;15.528;2023-03-21T09:19:57;100702.63;;;4.97;100.00
12664;BME280;6396;58.490;15.528;2023-03-21T09:22:26;100503.28;;;3.94;100.00
12664;BME280;6396;58.490;15.528;2023-03-21T09:24:53;100733.16;;;5.05;100.00
12664;BME280;6396;58.490;15.528;2023-03-21T09:27:21;100765.41;;;5.10;100.00
12664;BME280;6396;58.490;15.528;2023-03-21T09:29:53;100266.88;;;2.57;100.00
12664;BME280;6396;58.490;15.528;2023-03-21T09:32:21;100175.69;;;2.32;100.00
12664;BME280;6396;58.490;15.528;2023-03-21T09:34:49;99848.78;;;0.48;100.00
12664;BME280;6396;58.490;15.528;2023-03-21T09:37:19;100739.16;;;5.42;100.00
12664;BME280;6396;58.490;15.528;2023-03-21T09:39:51;100681.50;;;5.51;100.00
12664;BME280;6396;58.490;15.528;2023-03-21T09:42:33;100215.56;;;2.95;100.00
12664;BME280;6396;58.490;15.528;2023-03-21T09:45:35;100033.38;;;1.34;100.00
12664;BME280;6396;58.490;15.528;2023-03-21T10:08:20;100423.28;;;6.26;100.00
12664;BME280;6396;58.490;15.528;2023-03-21T10:10:49;100400.81;;;6.04;100.00
12664;BME280;6396;58.490;15.528;2023-03-21T10:13:20;100390.28;;;6.08;100.00
12664;BME280;6396;58.490;15.528;2023-03-21T10:15:48;99987.72;;;3.23;100.00
12664;BME280;6396;58.490;15.528;2023-03-21T10:18:20;100783.31;;;7.31;100.00
12664;BME280;6396;58.490;15.528;2023-03-21T10:20:49;100169.53;;;4.39;100.00
12664;BME280;6396;58.490;15.528;2023-03-21T10:23:19;100749.28;;;7.22;100.00
12664;BME280;6396;58.490;15.528;2023-03-21T10:25:48;100544.78;;;6.20;100.00
12664;BME280;6396;58.490;15.528;2023-03-21T10:28:19;99793.69;;;2.37;100.00
12664;BME280;6396;58.490;15.528;2023-03-21T10:30:50;100722.69;;;7.50;100.00
12664;BME280;6396;58.490;15.528;2023-03-21T10:33:21;99872.22;;;3.08;100.00
12664;BME280;6396;58.490;15.528;2023-03-21T10:35:50;100528.38;;;6.82;100.00
12664;BME280;6396;58.490;15.528;2023-03-21T10:38:22;100239.44;;;5.13;100.00
12664;BME280;6396;58.490;15.528;2023-03-21T10:40:50;100687.72;;;7.44;100.00
12664;BME280;6396;58.490;15.528;2023-03-21T10:43:20;100195.50;;;4.59;100.00
12664;BME280;6396;58.490;15.528;2023-03-21T10:49:47;100639.94;;;7.15;100.00
12664;BME280;6396;58.490;15.528;2023-03-21T11:06:06;100560.31;;;7.14;100.00
12664;BME280;6396;58.490;15.528;2023-03-21T11:08:38;100139.97;;;5.16;100.00
12664;BME280;6396;58.490;15.528;2023-03-21T11:11:08;100330.63;;;6.27;100.00
12664;BME280;6396;58.490;15.528;2023-03-21T11:13:38;100536.19;;;7.47;100.00
12664;BME280;6396;58.490;15.528;2023-03-21T11:16:08;100453.66;;;6.40;100.00
12664;BME280;6396;58.490;15.528;2023-03-21T11:18:41;100327.97;;;6.28;100.00
12664;BME280;6396;58.490;15.528;2023-03-21T11:21:18;99774.50;;;2.50;100.00
12664;BME280;6396;58.490;15.528;2023-03-21T11:24:01;99969.31;;;3.40;100.00
12664;BME280;6396;58.490;15.528;2023-03-21T11:26:33;100700.34;;;7.83;100.00
12664;BME280;6396;58.490;15.528;2023-03-21T11:29:19;100245.59;;;5.82;100.00
12664;BME280;6396;58.490;15.528;2023-03-21T11:31:51;99814.59;;;3.33;100.00
12664;BME280;6396;58.490;15.528;2023-03-21T11:34:53;99859.88;;;3.25;100.00
12664;BME280;6396;58.490;15.528;2023-03-21T11:37:38;99825.63;;;3.58;100.00
12664;BME280;6396;58.490;15.528;2023-03-21T11:40:18;100150.91;;;4.76;100.00
12664;BME280;6396;58.490;15.528;2023-03-21T11:42:57;99858.88;;;3.41;100.00
12664;BME280;6396;58.490;15.528;2023-03-21T11:45:30;99808.38;;;3.48;100.00
12664;BME280;6396;58.490;15.528;2023-03-21T11:48:12;99885.41;;;3.81;100.00
12664;BME280;6396;58.490;15.528;2023-03-21T11:50:50;100251.16;;;6.23;100.00
12664;BME280;6396;58.490;15.528;2023-03-21T11:53:32;100671.50;;;8.39;100.00
12664;BME280;6396;58.490;15.528;2023-03-21T11:58:50;99774.44;;;3.45;100.00
12664;BME280;6396;58.490;15.528;2023-03-21T12:01:28;99853.63;;;4.18;100.00
12664;BME280;6396;58.490;15.528;2023-03-21T12:04:20;100283.72;;;6.66;100.00
12664;BME280;6396;58.490;15.528;2023-03-21T12:07:00;99830.63;;;3.76;100.00
12664;BME280;6396;58.490;15.528;2023-03-21T12:09:48;100610.25;;;8.78;100.00
12664;BME280;6396;58.490;15.528;2023-03-21T12:16:12;100170.28;;;5.99;100.00
12664;BME280;6396;58.490;15.528;2023-03-21T12:19:09;99820.47;;;4.22;100.00
12664;BME280;6396;58.490;15.528;2023-03-21T12:22:00;99921.66;;;4.09;100.00
12664;BME280;6396;58.490;15.528;2023-03-21T12:24:50;100715.81;;;8.06;100.00
12664;BME280;6396;58.490;15.528;2023-03-21T12:27:57;100649.25;;;8.02;100.00
12664;BME280;6396;58.490;15.528;2023-03-21T12:31:07;100364.75;;;6.85;100.00
12664;BME280;6396;58.490;15.528;2023-03-21T12:33:56;100367.59;;;6.06;100.00
12664;BME280;6396;58.490;15.528;2023-03-21T12:39:30;100696.91;;;7.79;100.00
12664;BME280;6396;58.490;15.528;2023-03-21T12:45:41;100618.09;;;7.78;100.00
12664;BME280;6396;58.490;15.528;2023-03-21T12:48:59;99821.94;;;2.94;100.00
12664;BME280;6396;58.490;15.528;2023-03-21T12:55:54;99847.16;;;2.87;100.00
12664;BME280;6396;58.490;15.528;2023-03-21T13:12:47;100625.31;;;8.20;100.00
12664;BME280;6396;58.490;15.528;2023-03-21T13:17:55;100509.38;;;8.32;100.00
12664;BME280;6396;58.490;15.528;2023-03-21T13:19:01;100514.44;;;8.43;100.00
12664;BME280;6396;58.490;15.528;2023-03-21T13:21:40;100157.28;;;6.46;100.00
12664;BME280;6396;58.490;15.528;2023-03-21T13:24:31;100528.78;;;8.72;100.00
12664;BME280;6396;58.490;15.528;2023-03-21T13:27:04;100293.22;;;7.71;100.00
12664;BME280;6396;58.490;15.528;2023-03-21T13:29:41;100019.84;;;6.11;100.00
12664;BME280;6396;58.490;15.528;2023-03-21T13:32:27;100171.06;;;7.06;100.00
12664;BME280;6396;58.490;15.528;2023-03-21T13:35:18;100484.00;;;8.74;100.00
12664;BME280;6396;58.490;15.528;2023-03-21T13:37:57;100049.88;;;5.92;100.00
12664;BME280;6396;58.490;15.528;2023-03-21T13:40:33;99895.53;;;5.31;100.00
12664;BME280;6396;58.490;15.528;2023-03-21T13:43:01;99833.00;;;4.61;100.00
12664;BME280;6396;58.490;15.528;2023-03-21T13:45:45;100567.50;;;8.64;100.00
12664;BME280;6396;58.490;15.528;2023-03-21T13:48:26;99719.81;;;4.00;100.00
12664;BME280;6396;58.490;15.528;2023-03-21T13:50:59;100015.81;;;5.35;100.00
12664;BME280;6396;58.490;15.528;2023-03-21T13:53:31;99668.28;;;3.53;100.00
12664;BME280;6396;58.490;15.528;2023-03-21T13:56:24;100218.28;;;6.59;100.00
12664;BME280;6396;58.490;15.528;2023-03-21T13:59:11;99732.41;;;3.69;100.00
12664;BME280;6396;58.490;15.528;2023-03-21T14:01:57;100302.94;;;7.20;100.00
12664;BME280;6396;58.490;15.528;2023-03-21T14:04:26;100249.69;;;7.14;100.00
12664;BME280;6396;58.490;15.528;2023-03-21T14:06:57;100180.38;;;6.76;100.00
12664;BME280;6396;58.490;15.528;2023-03-21T14:09:28;100498.31;;;8.12;100.00
12664;BME280;6396;58.490;15.528;2023-03-21T14:11:59;100099.50;;;6.51;100.00
12664;BME280;6396;58.490;15.528;2023-03-21T14:14:31;99854.22;;;4.98;100.00
12664;BME280;6396;58.490;15.528;2023-03-21T14:16:59;99752.22;;;3.84;100.00
12664;BME280;6396;58.490;15.528;2023-03-21T14:19:30;99876.53;;;5.18;100.00
12664;BME280;6396;58.490;15.528;2023-03-21T14:21:57;99983.81;;;5.73;100.00
12664;BME280;6396;58.490;15.528;2023-03-21T14:24:24;99970.81;;;5.67;100.00
12664;BME280;6396;58.490;15.528;2023-03-21T14:26:53;100037.25;;;6.15;100.00
12664;BME280;6396;58.490;15.528;2023-03-21T14:29:25;100451.13;;;8.52;100.00
12664;BME280;6396;58.490;15.528;2023-03-21T14:31:55;100425.09;;;8.37;100.00
12664;BME280;6396;58.490;15.528;2023-03-21T14:34:27;99686.06;;;3.88;100.00
12664;BME280;6396;58.490;15.528;2023-03-21T14:36:55;100378.94;;;7.78;100.00
12664;BME280;6396;58.490;15.528;2023-03-21T14:39:27;100106.13;;;6.24;100.00
12664;BME280;6396;58.490;15.528;2023-03-21T14:41:55;100032.66;;;5.77;100.00
12664;BME280;6396;58.490;15.528;2023-03-21T14:44:25;99643.25;;;3.98;100.00
12664;BME280;6396;58.490;15.528;2023-03-21T14:46:59;100073.28;;;6.52;100.00
12664;BME280;6396;58.490;15.528;2023-03-21T14:49:28;99733.78;;;3.99;100.00
12664;BME280;6396;58.490;15.528;2023-03-21T14:51:58;100067.75;;;6.20;100.00
12664;BME280;6396;58.490;15.528;2023-03-21T14:54:27;99621.81;;;3.78;100.00
12664;BME280;6396;58.490;15.528;2023-03-21T14:56:58;100206.03;;;7.08;100.00
12664;BME280;6396;58.490;15.528;2023-03-21T14:59:33;100114.00;;;6.21;100.00
12664;BME280;6396;58.490;15.528;2023-03-21T15:02:04;100406.91;;;8.26;100.00
12664;BME280;6396;58.490;15.528;2023-03-21T15:04:38;99543.28;;;2.73;100.00
12664;BME280;6396;58.490;15.528;2023-03-21T15:07:23;99574.81;;;3.20;100.00
12664;BME280;6396;58.490;15.528;2023-03-21T15:09:54;99541.34;;;2.88;100.00
12664;BME280;6396;58.490;15.528;2023-03-21T15:12:30;99656.88;;;3.57;100.00
12664;BME280;6396;58.490;15.528;2023-03-21T15:15:04;100364.97;;;8.19;100.00
12664;BME280;6396;58.490;15.528;2023-03-21T15:17:41;100311.44;;;7.80;100.00
12664;BME280;6396;58.490;15.528;2023-03-21T15:23:32;99883.44;;;4.68;100.00
12664;BME280;6396;58.490;15.528;2023-03-21T15:26:12;100345.13;;;8.04;100.00
12664;BME280;6396;58.490;15.528;2023-03-21T15:28:44;99515.78;;;2.48;100.00